Time;durP1;ratioP1;P1;durP2;ratioP2;P2;SDS_P1;SDS_P2;PMS_P1;PMS_P2;Temp;Humidity;BMP_temperature;BMP_pressure;BME280_temperature;BME280_humidity;BME280_pressure;Samples;Min_cycle;Max_cycle;Signal;HPM_P1;HPM_P2
2023/12/08 00:01:13;;;;;;;;;;;0.90;99.90;;;;;;5015030;28;19929;-63
2023/12/08 00:03:41;;;;;;;;;;;0.90;99.90;;;;;;5015668;28;19933;-65
2023/12/08 00:06:09;;;;;;;;;;;0.90;99.90;;;;;;5022799;28;19983;-60
2023/12/08 00:08:37;;;;;;;;;;;0.90;99.90;;;;;;5023428;28;19952;-64
2023/12/08 00:11:05;;;;;;;;;;;0.90;99.90;;;;;;5022764;28;20019;-61
2023/12/08 00:13:32;;;;;;;;;;;0.90;99.90;;;;;;5016497;28;19934;-63
2023/12/08 00:15:58;;;;;;;;;;;0.90;99.90;;;;;;5021769;28;20399;-61
2023/12/08 00:18:25;;;;;;;;;;;0.80;99.90;;;;;;5023140;28;20008;-65
2023/12/08 00:20:53;;;;;;;;;;;0.80;99.90;;;;;;5022511;28;19933;-62
2023/12/08 00:23:20;;;;;;;;;;;0.80;99.90;;;;;;5013358;28;19939;-59
2023/12/08 00:25:47;;;;;;;;;;;0.80;99.90;;;;;;5023780;28;19933;-64
2023/12/08 00:28:13;;;;;;;;;;;0.80;99.90;;;;;;5018186;28;19933;-61
2023/12/08 00:30:40;;;;;;;;;;;0.80;99.90;;;;;;5019406;28;19929;-65
2023/12/08 00:33:07;;;;;;;;;;;0.80;99.90;;;;;;5021955;28;19929;-65
2023/12/08 00:35:35;;;;;;;;;;;0.80;99.90;;;;;;5037163;28;19933;-69
2023/12/08 00:38:02;;;;;;;;;;;0.80;99.90;;;;;;5035543;28;20024;-62
2023/12/08 00:40:29;;;;;;;;;;;0.80;99.90;;;;;;5035702;28;19933;-67
2023/12/08 00:42:56;;;;;;;;;;;0.80;99.90;;;;;;5038861;28;19941;-63
2023/12/08 00:45:23;;;;;;;;;;;0.90;99.90;;;;;;5037181;28;19991;-62
2023/12/08 00:47:50;;;;;;;;;;;0.90;99.90;;;;;;5038630;28;19936;-63
2023/12/08 00:50:17;;;;;;;;;;;0.90;99.90;;;;;;5039040;28;19929;-64
2023/12/08 00:52:44;;;;;;;;;;;0.80;99.90;;;;;;5039713;28;19975;-59
2023/12/08 00:55:11;;;;;;;;;;;0.90;99.90;;;;;;5042328;28;19943;-59
2023/12/08 00:57:38;;;;;;;;;;;0.90;99.90;;;;;;5039936;28;19940;-61
2023/12/08 01:00:05;;;;;;;;;;;0.80;99.90;;;;;;5040479;28;20294;-66
2023/12/08 01:02:32;;;;;;;;;;;0.80;99.90;;;;;;5041014;28;19928;-65
2023/12/08 01:04:59;;;;;;;;;;;0.80;99.90;;;;;;5040381;28;19932;-63
2023/12/08 01:07:26;;;;;;;;;;;0.80;99.90;;;;;;5041155;28;20370;-64
2023/12/08 01:09:53;;;;;;;;;;;0.80;99.90;;;;;;5039181;28;19933;-59
2023/12/08 01:12:20;;;;;;;;;;;0.80;99.90;;;;;;5040458;28;20461;-61
2023/12/08 01:14:47;;;;;;;;;;;0.80;99.90;;;;;;5040001;28;20009;-65
2023/12/08 01:17:14;;;;;;;;;;;0.80;99.90;;;;;;5039578;28;20008;-62
2023/12/08 01:19:41;;;;;;;;;;;0.80;99.90;;;;;;5039148;28;19964;-62
2023/12/08 01:22:08;;;;;;;;;;;0.80;99.90;;;;;;5039825;28;19939;-61
2023/12/08 01:24:35;;;;;;;;;;;0.80;99.90;;;;;;5039496;28;19932;-64
2023/12/08 01:27:01;;;;;;;;;;;0.80;99.90;;;;;;5039989;28;19932;-65
2023/12/08 01:29:28;;;;;;;;;;;0.80;99.90;;;;;;5038032;28;20264;-65
2023/12/08 01:31:55;;;;;;;;;;;0.80;99.90;;;;;;5039915;28;19935;-62
2023/12/08 01:34:22;;;;;;;;;;;0.80;99.90;;;;;;5039945;28;20497;-61
2023/12/08 01:36:49;;;;;;;;;;;0.90;99.90;;;;;;5039629;28;20366;-64
2023/12/08 01:39:16;;;;;;;;;;;0.90;99.90;;;;;;5040704;28;20886;-61
2023/12/08 01:41:43;;;;;;;;;;;0.80;99.90;;;;;;5038887;28;19934;-64
2023/12/08 01:44:10;;;;;;;;;;;0.90;99.90;;;;;;5025767;28;19939;-66
2023/12/08 01:46:37;;;;;;;;;;;0.90;99.90;;;;;;5038948;28;19940;-64
2023/12/08 01:49:04;;;;;;;;;;;0.80;99.90;;;;;;5038544;28;20240;-62
2023/12/08 01:51:32;;;;;;;;;;;0.80;99.90;;;;;;5038223;28;19933;-63
2023/12/08 01:53:58;;;;;;;;;;;0.80;99.90;;;;;;5036897;28;19933;-61
2023/12/08 01:56:26;;;;;;;;;;;0.80;99.90;;;;;;5039200;28;19933;-63
2023/12/08 01:58:53;;;;;;;;;;;0.80;99.90;;;;;;5037097;28;19932;-66
2023/12/08 02:01:20;;;;;;;;;;;0.80;99.90;;;;;;5039606;28;19983;-62
2023/12/08 02:03:50;;;;;;;;;;;0.80;99.90;;;;;;5037758;28;20338;-65
2023/12/08 02:06:20;;;;;;;;;;;0.80;99.90;;;;;;5022111;28;19980;-61
2023/12/08 02:08:48;;;;;;;;;;;0.80;99.90;;;;;;5037714;28;20017;-64
2023/12/08 02:11:15;;;;;;;;;;;0.90;99.90;;;;;;5036338;28;20477;-63
2023/12/08 02:13:44;;;;;;;;;;;0.80;99.90;;;;;;5036806;28;19986;-61
2023/12/08 02:16:15;;;;;;;;;;;0.90;99.90;;;;;;5038205;28;19932;-59
2023/12/08 02:18:42;;;;;;;;;;;0.90;99.90;;;;;;5038948;28;20034;-62
2023/12/08 02:21:10;;;;;;;;;;;0.90;99.90;;;;;;5037793;28;19955;-64
2023/12/08 02:23:37;;;;;;;;;;;0.80;99.90;;;;;;5039769;28;20081;-63
2023/12/08 02:26:04;;;;;;;;;;;0.80;99.90;;;;;;5038491;28;19929;-64
2023/12/08 02:28:31;;;;;;;;;;;0.80;99.90;;;;;;5039198;28;19928;-63
2023/12/08 02:30:59;;;;;;;;;;;0.80;99.90;;;;;;5038433;28;19984;-68
2023/12/08 02:33:36;;;;;;;;;;;0.80;99.90;;;;;;5038651;28;20102;-64
2023/12/08 02:36:04;;;;;;;;;;;0.80;99.90;;;;;;5037308;28;19933;-62
2023/12/08 02:38:34;;;;;;;;;;;0.80;99.90;;;;;;5037791;28;20279;-65
2023/12/08 02:41:01;;;;;;;;;;;0.80;99.90;;;;;;5024360;28;20646;-62
2023/12/08 02:43:28;;;;;;;;;;;0.80;99.90;;;;;;5039021;28;20478;-63
2023/12/08 02:45:55;;;;;;;;;;;0.80;99.90;;;;;;5039559;28;19944;-62
2023/12/08 02:48:22;;;;;;;;;;;0.80;99.90;;;;;;5038136;28;20439;-63
2023/12/08 02:50:49;;;;;;;;;;;0.80;99.90;;;;;;5037867;28;19933;-63
2023/12/08 02:53:16;;;;;;;;;;;0.80;99.90;;;;;;5037812;28;19937;-65
2023/12/08 02:55:42;;;;;;;;;;;0.80;99.90;;;;;;5037490;28;19955;-62
2023/12/08 02:58:09;;;;;;;;;;;0.80;99.90;;;;;;5037472;28;19929;-66
2023/12/08 03:00:36;;;;;;;;;;;0.80;99.90;;;;;;5035878;28;19929;-61
2023/12/08 03:03:03;;;;;;;;;;;0.80;99.90;;;;;;5038452;28;19932;-60
2023/12/08 03:05:30;;;;;;;;;;;0.80;99.90;;;;;;5037408;28;19940;-63
2023/12/08 03:07:57;;;;;;;;;;;0.80;99.90;;;;;;5034318;28;20007;-64
2023/12/08 03:10:24;;;;;;;;;;;0.90;99.90;;;;;;5036957;28;20280;-61
2023/12/08 03:12:51;;;;;;;;;;;0.80;99.90;;;;;;5034005;28;19929;-66
2023/12/08 03:15:17;;;;;;;;;;;0.90;99.90;;;;;;5037201;28;19933;-64
2023/12/08 03:17:44;;;;;;;;;;;0.80;99.90;;;;;;5038489;28;20374;-64
2023/12/08 03:20:11;;;;;;;;;;;0.80;99.90;;;;;;5037040;28;19940;-63
2023/12/08 03:22:38;;;;;;;;;;;0.90;99.90;;;;;;5036963;28;20032;-64
2023/12/08 03:25:05;;;;;;;;;;;0.90;99.90;;;;;;5037328;28;20012;-64
2023/12/08 03:27:32;;;;;;;;;;;0.80;99.90;;;;;;5035747;28;20960;-61
2023/12/08 03:29:59;;;;;;;;;;;0.80;99.90;;;;;;5038022;28;19937;-64
2023/12/08 03:32:25;;;;;;;;;;;0.80;99.90;;;;;;5035682;28;20106;-61
2023/12/08 03:34:52;;;;;;;;;;;0.80;99.90;;;;;;5034463;28;19935;-65
2023/12/08 03:37:19;;;;;;;;;;;0.80;99.90;;;;;;5036761;28;20309;-66
2023/12/08 03:39:46;;;;;;;;;;;0.80;99.90;;;;;;5037744;28;19976;-62
2023/12/08 03:42:13;;;;;;;;;;;0.80;99.90;;;;;;5037805;28;19940;-61
2023/12/08 03:44:40;;;;;;;;;;;0.80;99.90;;;;;;5037302;28;19936;-66
2023/12/08 03:47:07;;;;;;;;;;;0.80;99.90;;;;;;5037848;28;20024;-64
2023/12/08 03:49:33;;;;;;;;;;;0.90;99.90;;;;;;5037991;28;19929;-62
2023/12/08 03:52:01;;;;;;;;;;;0.80;99.90;;;;;;5036326;28;19933;-66
2023/12/08 03:54:27;;;;;;;;;;;0.80;99.90;;;;;;5037640;28;19940;-64
2023/12/08 03:56:54;;;;;;;;;;;0.80;99.90;;;;;;5036219;28;19976;-66
2023/12/08 03:59:21;;;;;;;;;;;0.80;99.90;;;;;;5037280;28;19929;-65
2023/12/08 04:01:51;;;;;;;;;;;0.80;99.90;;;;;;5036121;28;19933;-63
2023/12/08 04:04:18;;;;;;;;;;;0.80;99.90;;;;;;5037802;28;19936;-65
2023/12/08 04:06:54;;;;;;;;;;;0.80;99.90;;;;;;5036074;28;19933;-66
2023/12/08 04:09:20;;;;;;;;;;;0.80;99.90;;;;;;5037319;28;21320;-60
2023/12/08 04:11:47;;;;;;;;;;;0.90;99.90;;;;;;5037552;28;19933;-63
2023/12/08 04:14:14;;;;;;;;;;;0.90;99.90;;;;;;5036433;28;19932;-63
2023/12/08 04:16:41;;;;;;;;;;;0.90;99.90;;;;;;5036651;28;20043;-65
2023/12/08 04:19:09;;;;;;;;;;;0.90;99.90;;;;;;5036654;28;19995;-60
2023/12/08 04:21:36;;;;;;;;;;;0.90;99.90;;;;;;5035657;28;19936;-62
2023/12/08 04:24:03;;;;;;;;;;;0.90;99.90;;;;;;5040226;28;20043;-59
2023/12/08 04:26:30;;;;;;;;;;;0.90;99.90;;;;;;5039405;28;19939;-66
2023/12/08 04:28:56;;;;;;;;;;;0.90;99.90;;;;;;5039996;28;20011;-64
2023/12/08 04:31:23;;;;;;;;;;;0.90;99.90;;;;;;5038745;28;19929;-63
2023/12/08 04:33:51;;;;;;;;;;;0.90;99.90;;;;;;5038790;28;19968;-64
2023/12/08 04:36:18;;;;;;;;;;;0.90;99.90;;;;;;5041629;28;19933;-66
2023/12/08 04:38:45;;;;;;;;;;;0.90;99.90;;;;;;5040417;28;19933;-64
2023/12/08 04:41:12;;;;;;;;;;;0.90;99.90;;;;;;5041075;28;19937;-60
2023/12/08 04:43:38;;;;;;;;;;;0.90;99.90;;;;;;5040232;28;20289;-65
2023/12/08 04:46:05;;;;;;;;;;;0.90;99.90;;;;;;5040379;28;19933;-62
2023/12/08 04:48:32;;;;;;;;;;;0.90;99.90;;;;;;5040100;28;19955;-64
2023/12/08 04:50:59;;;;;;;;;;;0.90;99.90;;;;;;5040694;28;19936;-61
2023/12/08 04:53:26;;;;;;;;;;;0.90;99.90;;;;;;5040069;28;20266;-64
2023/12/08 04:55:53;;;;;;;;;;;0.90;99.90;;;;;;5040324;28;20018;-62
2023/12/08 04:58:20;;;;;;;;;;;1.00;99.90;;;;;;5038098;28;19933;-68
2023/12/08 05:00:49;;;;;;;;;;;1.00;99.90;;;;;;5037878;28;20037;-66
2023/12/08 05:03:16;;;;;;;;;;;1.00;99.90;;;;;;5041194;28;20310;-63
2023/12/08 05:05:43;;;;;;;;;;;1.00;99.90;;;;;;5035092;28;19936;-64
2023/12/08 05:08:10;;;;;;;;;;;1.00;99.90;;;;;;5039445;28;19935;-63
2023/12/08 05:10:36;;;;;;;;;;;1.00;99.90;;;;;;5039500;28;19968;-61
2023/12/08 05:13:03;;;;;;;;;;;1.00;99.90;;;;;;5038057;28;20502;-63
2023/12/08 05:15:30;;;;;;;;;;;1.00;99.90;;;;;;5039375;28;19964;-64
2023/12/08 05:17:57;;;;;;;;;;;1.00;99.90;;;;;;5036162;28;20410;-61
2023/12/08 05:20:24;;;;;;;;;;;1.00;99.90;;;;;;5037965;28;20158;-63
2023/12/08 05:22:51;;;;;;;;;;;1.00;99.90;;;;;;5038043;28;19994;-61
2023/12/08 05:25:17;;;;;;;;;;;1.00;99.90;;;;;;5039937;28;20057;-61
2023/12/08 05:27:44;;;;;;;;;;;1.00;99.90;;;;;;5040042;28;21693;-64
2023/12/08 05:30:11;;;;;;;;;;;1.00;99.90;;;;;;5040940;28;20009;-66
2023/12/08 05:32:38;;;;;;;;;;;1.00;99.90;;;;;;5038413;28;19933;-64
2023/12/08 05:35:05;;;;;;;;;;;1.00;99.90;;;;;;5039055;28;19944;-66
2023/12/08 05:37:32;;;;;;;;;;;1.00;99.90;;;;;;5038936;28;19932;-60
2023/12/08 05:39:59;;;;;;;;;;;1.00;99.90;;;;;;5038192;28;20031;-62
2023/12/08 05:42:26;;;;;;;;;;;1.00;99.90;;;;;;5039292;28;19943;-64
2023/12/08 05:44:52;;;;;;;;;;;1.00;99.90;;;;;;5039126;28;19955;-63
2023/12/08 05:47:19;;;;;;;;;;;1.00;99.90;;;;;;5038494;28;19933;-64
2023/12/08 05:49:46;;;;;;;;;;;1.00;99.90;;;;;;5037861;28;20022;-65
2023/12/08 05:52:13;;;;;;;;;;;1.00;99.90;;;;;;5039376;28;19928;-64
2023/12/08 05:54:40;;;;;;;;;;;1.00;99.90;;;;;;5040111;28;20467;-66
2023/12/08 05:57:07;;;;;;;;;;;1.00;99.90;;;;;;5037510;28;20308;-66
2023/12/08 05:59:34;;;;;;;;;;;1.10;99.90;;;;;;5037287;28;19933;-62
2023/12/08 06:02:01;;;;;;;;;;;1.10;99.90;;;;;;5038352;28;19937;-63
2023/12/08 06:04:27;;;;;;;;;;;1.00;99.90;;;;;;5038631;28;20272;-67
2023/12/08 06:06:54;;;;;;;;;;;1.00;99.90;;;;;;5038698;28;20333;-66
2023/12/08 06:09:21;;;;;;;;;;;1.00;99.90;;;;;;5039637;28;20041;-60
2023/12/08 06:11:48;;;;;;;;;;;1.10;99.90;;;;;;5036956;28;19933;-67
2023/12/08 06:14:15;;;;;;;;;;;1.10;99.90;;;;;;5038198;28;19940;-61
2023/12/08 06:16:42;;;;;;;;;;;1.10;99.90;;;;;;5023331;28;19932;-64
2023/12/08 06:19:09;;;;;;;;;;;1.00;99.90;;;;;;5039045;28;20012;-67
2023/12/08 06:21:36;;;;;;;;;;;1.00;99.90;;;;;;5037410;28;20020;-66
2023/12/08 06:24:03;;;;;;;;;;;1.00;99.90;;;;;;5039869;28;20015;-62
2023/12/08 06:26:30;;;;;;;;;;;1.10;99.90;;;;;;5037151;28;20349;-69
2023/12/08 06:28:57;;;;;;;;;;;1.00;99.90;;;;;;5039404;28;20571;-62
2023/12/08 06:31:23;;;;;;;;;;;1.00;99.90;;;;;;5037441;28;19924;-64
2023/12/08 06:33:50;;;;;;;;;;;1.00;99.90;;;;;;5040065;28;20442;-64
2023/12/08 06:36:48;;;;;;;;;;;1.00;99.90;;;;;;5038421;28;19935;-64
2023/12/08 06:39:17;;;;;;;;;;;1.00;99.90;;;;;;5037893;28;20765;-62
2023/12/08 06:41:45;;;;;;;;;;;1.00;99.90;;;;;;5037223;28;20017;-62
2023/12/08 06:44:12;;;;;;;;;;;1.00;99.90;;;;;;5036916;28;20462;-61
2023/12/08 06:46:39;;;;;;;;;;;1.00;99.90;;;;;;5037535;28;19982;-65
2023/12/08 06:49:05;;;;;;;;;;;1.10;99.90;;;;;;5024363;28;19971;-61
2023/12/08 06:51:36;;;;;;;;;;;1.10;99.90;;;;;;5038324;28;19928;-64
2023/12/08 06:54:03;;;;;;;;;;;1.10;99.90;;;;;;5037759;28;19940;-64
2023/12/08 06:56:30;;;;;;;;;;;1.10;99.90;;;;;;5037353;28;19933;-63
2023/12/08 06:58:57;;;;;;;;;;;1.00;99.90;;;;;;5037035;28;20280;-60
2023/12/08 07:01:24;;;;;;;;;;;1.10;99.90;;;;;;5038746;28;20063;-63
2023/12/08 07:03:51;;;;;;;;;;;1.10;99.90;;;;;;5038622;28;19928;-64
2023/12/08 07:06:18;;;;;;;;;;;1.10;99.90;;;;;;5038614;28;19940;-64
2023/12/08 07:08:45;;;;;;;;;;;1.10;99.90;;;;;;5037746;28;19941;-63
2023/12/08 07:11:12;;;;;;;;;;;1.10;99.90;;;;;;5037125;28;19932;-62
2023/12/08 07:13:39;;;;;;;;;;;1.10;99.90;;;;;;5036935;28;19932;-66
2023/12/08 07:16:09;;;;;;;;;;;1.10;99.90;;;;;;5036733;28;19994;-63
2023/12/08 07:18:39;;;;;;;;;;;1.10;99.90;;;;;;5038955;28;20031;-64
2023/12/08 07:21:06;;;;;;;;;;;1.10;99.90;;;;;;5037463;28;19932;-61
2023/12/08 07:23:33;;;;;;;;;;;1.10;99.90;;;;;;5036626;28;19932;-63
2023/12/08 07:26:00;;;;;;;;;;;1.10;99.90;;;;;;5036542;28;19936;-64
2023/12/08 07:28:28;;;;;;;;;;;1.10;99.90;;;;;;5037945;28;20355;-64
2023/12/08 07:30:55;;;;;;;;;;;1.10;99.90;;;;;;5036244;28;20456;-64
2023/12/08 07:33:21;;;;;;;;;;;1.10;99.90;;;;;;5023611;28;19933;-63
2023/12/08 07:35:49;;;;;;;;;;;1.10;99.90;;;;;;5036236;28;19932;-63
2023/12/08 07:38:16;;;;;;;;;;;1.10;99.90;;;;;;5037211;28;19933;-64
2023/12/08 07:40:42;;;;;;;;;;;1.10;99.90;;;;;;5037303;28;20009;-66
2023/12/08 07:43:09;;;;;;;;;;;1.10;99.90;;;;;;5036812;28;19937;-62
2023/12/08 07:45:36;;;;;;;;;;;1.20;99.90;;;;;;5036446;28;19933;-64
2023/12/08 07:48:03;;;;;;;;;;;1.20;99.90;;;;;;5036095;28;20360;-62
2023/12/08 07:50:30;;;;;;;;;;;1.20;99.90;;;;;;5022761;28;19936;-60
2023/12/08 07:52:57;;;;;;;;;;;1.20;99.90;;;;;;5036209;28;19942;-61
2023/12/08 07:55:24;;;;;;;;;;;1.20;99.90;;;;;;5036043;28;20060;-65
2023/12/08 07:57:51;;;;;;;;;;;1.20;99.90;;;;;;5036536;28;19929;-64
2023/12/08 08:00:18;;;;;;;;;;;1.30;99.90;;;;;;5035449;28;19933;-64
2023/12/08 08:02:45;;;;;;;;;;;1.30;99.90;;;;;;5035537;28;20425;-61
2023/12/08 08:05:13;;;;;;;;;;;1.30;99.90;;;;;;5036207;28;19932;-62
2023/12/08 08:07:39;;;;;;;;;;;1.30;99.90;;;;;;5036268;28;20087;-64
2023/12/08 08:10:06;;;;;;;;;;;1.40;99.90;;;;;;5035639;28;19968;-63
2023/12/08 08:12:33;;;;;;;;;;;1.40;99.90;;;;;;5035828;28;20379;-63
2023/12/08 08:15:00;;;;;;;;;;;1.40;99.90;;;;;;5034749;28;20366;-64
2023/12/08 08:17:27;;;;;;;;;;;1.40;99.90;;;;;;5036305;28;20028;-66
2023/12/08 08:19:55;;;;;;;;;;;1.40;99.90;;;;;;5036437;28;19933;-62
2023/12/08 08:22:21;;;;;;;;;;;1.40;99.90;;;;;;5035401;28;20651;-62
2023/12/08 08:24:58;;;;;;;;;;;1.40;99.90;;;;;;5037784;28;19963;-62
2023/12/08 08:27:25;;;;;;;;;;;1.40;99.90;;;;;;5035612;28;19933;-65
2023/12/08 08:29:53;;;;;;;;;;;1.40;99.90;;;;;;5034930;28;20604;-64
2023/12/08 08:32:20;;;;;;;;;;;1.40;99.90;;;;;;4974155;28;1767808;-61
2023/12/08 08:34:47;;;;;;;;;;;1.50;99.90;;;;;;5037273;28;19972;-65
2023/12/08 08:37:14;;;;;;;;;;;1.50;99.90;;;;;;5036366;28;20291;-64
2023/12/08 08:39:41;;;;;;;;;;;1.50;99.90;;;;;;5037361;28;19956;-65
2023/12/08 08:42:07;;;;;;;;;;;1.50;99.90;;;;;;5035999;28;19929;-69
2023/12/08 08:44:36;;;;;;;;;;;1.50;99.90;;;;;;5035956;28;19990;-67
2023/12/08 08:47:03;;;;;;;;;;;1.50;99.90;;;;;;5037904;28;19976;-64
2023/12/08 08:49:30;;;;;;;;;;;1.50;99.90;;;;;;5034571;28;20036;-64
2023/12/08 08:51:57;;;;;;;;;;;1.50;99.90;;;;;;5037385;28;20993;-61
2023/12/08 08:54:24;;;;;;;;;;;1.50;99.90;;;;;;5037170;28;19952;-67
2023/12/08 08:56:51;;;;;;;;;;;1.60;99.90;;;;;;5036935;28;19968;-68
2023/12/08 08:59:18;;;;;;;;;;;1.60;99.90;;;;;;5036295;28;19936;-64
2023/12/08 09:01:45;;;;;;;;;;;1.60;99.90;;;;;;5035381;28;19933;-68
2023/12/08 09:04:12;;;;;;;;;;;1.60;99.90;;;;;;5037022;28;19933;-61
2023/12/08 09:06:39;;;;;;;;;;;1.60;99.90;;;;;;5034972;28;19932;-69
2023/12/08 09:09:07;;;;;;;;;;;1.70;99.90;;;;;;5040058;28;19940;-65
2023/12/08 09:11:34;;;;;;;;;;;1.70;99.90;;;;;;5039512;28;19933;-63
2023/12/08 09:14:01;;;;;;;;;;;1.70;99.90;;;;;;5039621;28;19933;-60
2023/12/08 09:16:28;;;;;;;;;;;1.70;99.90;;;;;;5038682;28;19935;-65
2023/12/08 09:18:55;;;;;;;;;;;1.70;99.90;;;;;;5039897;28;19933;-63
2023/12/08 09:21:22;;;;;;;;;;;1.70;99.90;;;;;;5039280;28;19960;-62
2023/12/08 09:23:49;;;;;;;;;;;1.70;99.90;;;;;;5039891;28;20011;-62
2023/12/08 09:26:16;;;;;;;;;;;1.70;99.90;;;;;;5037880;28;19948;-69
2023/12/08 09:28:42;;;;;;;;;;;1.70;99.90;;;;;;5040503;28;19924;-67
2023/12/08 09:31:09;;;;;;;;;;;1.70;99.90;;;;;;5038644;28;20625;-66
2023/12/08 09:33:36;;;;;;;;;;;1.70;99.90;;;;;;5039134;28;19933;-64
2023/12/08 09:36:03;;;;;;;;;;;1.70;99.90;;;;;;5038811;28;20442;-61
2023/12/08 09:38:30;;;;;;;;;;;1.70;99.90;;;;;;5039141;28;19939;-64
2023/12/08 09:41:01;;;;;;;;;;;1.70;99.90;;;;;;5039089;28;20070;-64
2023/12/08 09:43:32;;;;;;;;;;;1.70;99.90;;;;;;5039269;28;19964;-62
2023/12/08 09:46:01;;;;;;;;;;;1.80;99.90;;;;;;5036945;28;20025;-63
2023/12/08 09:48:28;;;;;;;;;;;1.80;99.90;;;;;;5040027;28;20690;-62
2023/12/08 09:50:57;;;;;;;;;;;1.80;99.90;;;;;;5038619;28;19933;-64
2023/12/08 09:53:24;;;;;;;;;;;1.90;99.90;;;;;;5039304;28;19933;-60
2023/12/08 09:55:51;;;;;;;;;;;1.90;99.90;;;;;;5038846;28;19933;-64
2023/12/08 09:58:20;;;;;;;;;;;1.90;99.90;;;;;;5040134;28;19967;-62
2023/12/08 10:00:48;;;;;;;;;;;1.90;99.90;;;;;;5038006;28;19933;-66
2023/12/08 10:03:15;;;;;;;;;;;2.00;99.90;;;;;;5041330;28;19928;-64
2023/12/08 10:05:42;;;;;;;;;;;2.00;99.90;;;;;;5038025;28;19940;-65
2023/12/08 10:08:09;;;;;;;;;;;2.10;99.90;;;;;;5038059;28;19971;-63
2023/12/08 10:10:37;;;;;;;;;;;2.10;99.90;;;;;;5039798;28;20294;-62
2023/12/08 10:13:04;;;;;;;;;;;2.20;99.90;;;;;;5037973;28;20337;-61
2023/12/08 10:15:31;;;;;;;;;;;2.20;99.90;;;;;;5039294;28;19932;-61
2023/12/08 10:17:58;;;;;;;;;;;2.20;99.90;;;;;;5036665;28;19933;-64
2023/12/08 10:20:25;;;;;;;;;;;2.20;99.90;;;;;;5037263;28;19929;-63
2023/12/08 10:22:53;;;;;;;;;;;2.20;99.90;;;;;;5037688;28;19929;-61
2023/12/08 10:25:21;;;;;;;;;;;2.20;99.90;;;;;;5037685;28;19929;-62
2023/12/08 10:27:49;;;;;;;;;;;2.20;99.90;;;;;;5037411;28;20484;-67
2023/12/08 10:30:17;;;;;;;;;;;2.20;99.90;;;;;;5038822;28;19936;-62
2023/12/08 10:32:44;;;;;;;;;;;2.20;99.90;;;;;;5036606;28;19934;-64
2023/12/08 10:35:12;;;;;;;;;;;2.20;99.90;;;;;;5037354;28;20305;-61
2023/12/08 10:37:39;;;;;;;;;;;2.10;99.90;;;;;;5037337;28;20375;-69
2023/12/08 10:40:10;;;;;;;;;;;2.10;99.90;;;;;;5033921;28;20005;-68
2023/12/08 10:42:37;;;;;;;;;;;2.10;99.90;;;;;;5036510;28;19936;-64
2023/12/08 10:45:05;;;;;;;;;;;2.10;99.90;;;;;;5032260;28;20007;-63
2023/12/08 10:47:32;;;;;;;;;;;2.10;99.90;;;;;;5034965;28;20524;-63
2023/12/08 10:50:01;;;;;;;;;;;2.10;99.90;;;;;;5036281;28;19960;-66
2023/12/08 10:52:29;;;;;;;;;;;2.10;99.90;;;;;;5038122;28;19960;-64
2023/12/08 10:54:56;;;;;;;;;;;2.10;99.90;;;;;;5037967;28;20404;-60
2023/12/08 10:57:23;;;;;;;;;;;2.20;99.90;;;;;;5036956;28;20016;-66
2023/12/08 10:59:52;;;;;;;;;;;2.30;99.90;;;;;;5037668;28;19936;-67
2023/12/08 11:02:24;;;;;;;;;;;2.30;99.90;;;;;;5036850;28;19941;-65
2023/12/08 11:04:53;;;;;;;;;;;2.30;99.90;;;;;;5036744;28;19939;-60
2023/12/08 11:07:25;;;;;;;;;;;2.30;99.90;;;;;;5036713;28;19936;-61
2023/12/08 11:09:56;;;;;;;;;;;2.20;99.90;;;;;;5034245;28;20011;-60
2023/12/08 11:12:24;;;;;;;;;;;2.20;99.90;;;;;;5038335;28;19925;-62
2023/12/08 11:15:04;;;;;;;;;;;2.20;99.90;;;;;;5037881;28;20307;-64
2023/12/08 11:17:41;;;;;;;;;;;2.20;99.90;;;;;;5037578;28;19940;-63
2023/12/08 11:20:09;;;;;;;;;;;2.20;99.90;;;;;;5037928;28;19948;-63
2023/12/08 11:22:36;;;;;;;;;;;2.20;99.90;;;;;;5037701;28;20579;-63
2023/12/08 11:25:07;;;;;;;;;;;2.30;99.90;;;;;;5037213;28;19936;-62
2023/12/08 11:27:42;;;;;;;;;;;2.30;99.90;;;;;;5037498;28;20006;-62
2023/12/08 11:30:18;;;;;;;;;;;2.40;99.90;;;;;;5037781;28;20027;-63
2023/12/08 11:33:15;;;;;;;;;;;2.40;99.90;;;;;;5036301;28;20028;-63
2023/12/08 11:35:48;;;;;;;;;;;2.50;99.90;;;;;;4962802;28;20021;-65
2023/12/08 11:38:25;;;;;;;;;;;2.50;99.90;;;;;;5037928;28;19940;-64
2023/12/08 11:40:55;;;;;;;;;;;2.50;99.90;;;;;;5038836;28;19929;-67
2023/12/08 11:43:23;;;;;;;;;;;2.50;99.90;;;;;;5036859;28;20480;-64
2023/12/08 11:45:50;;;;;;;;;;;2.50;99.90;;;;;;5036841;28;19940;-61
2023/12/08 11:48:16;;;;;;;;;;;2.40;99.90;;;;;;5038872;28;20712;-61
2023/12/08 11:50:44;;;;;;;;;;;2.40;99.90;;;;;;5036404;28;20019;-67
2023/12/08 11:53:11;;;;;;;;;;;2.40;99.90;;;;;;5037947;28;19929;-66
2023/12/08 11:55:38;;;;;;;;;;;2.40;99.90;;;;;;5036778;28;19972;-62
2023/12/08 11:58:06;;;;;;;;;;;2.40;99.90;;;;;;5035509;28;19933;-63
2023/12/08 12:00:34;;;;;;;;;;;2.40;99.90;;;;;;5037002;28;19928;-66
2023/12/08 12:03:01;;;;;;;;;;;2.40;99.90;;;;;;5037281;28;19928;-63
2023/12/08 12:05:28;;;;;;;;;;;2.40;99.90;;;;;;5036330;28;19933;-64
2023/12/08 12:07:56;;;;;;;;;;;2.30;99.90;;;;;;5038292;28;20391;-64
2023/12/08 12:10:30;;;;;;;;;;;2.30;99.90;;;;;;5034198;28;20387;-64
2023/12/08 12:13:04;;;;;;;;;;;2.30;99.90;;;;;;5036032;28;19936;-60
2023/12/08 12:15:33;;;;;;;;;;;2.20;99.90;;;;;;5037339;28;19939;-63
2023/12/08 12:18:01;;;;;;;;;;;2.30;99.90;;;;;;5035847;28;19959;-64
2023/12/08 12:20:29;;;;;;;;;;;2.20;99.90;;;;;;5035874;28;19928;-66
2023/12/08 12:22:56;;;;;;;;;;;2.20;99.90;;;;;;5034088;28;20630;-63
2023/12/08 12:25:23;;;;;;;;;;;2.20;99.90;;;;;;5032417;28;20399;-64
2023/12/08 12:27:52;;;;;;;;;;;2.20;99.90;;;;;;5036233;28;19933;-64
2023/12/08 12:30:19;;;;;;;;;;;2.20;99.90;;;;;;5036120;28;19937;-64
2023/12/08 12:32:47;;;;;;;;;;;2.20;99.90;;;;;;5035267;28;19939;-65
2023/12/08 12:35:14;;;;;;;;;;;2.20;99.90;;;;;;5036670;28;19936;-62
2023/12/08 12:37:41;;;;;;;;;;;2.20;99.90;;;;;;5038025;28;20666;-62
2023/12/08 12:40:09;;;;;;;;;;;2.20;99.90;;;;;;5036985;28;20035;-64
2023/12/08 12:42:43;;;;;;;;;;;2.20;99.90;;;;;;5035403;28;19957;-60
2023/12/08 12:45:11;;;;;;;;;;;2.10;99.90;;;;;;5039819;28;19932;-60
2023/12/08 12:47:38;;;;;;;;;;;2.10;99.90;;;;;;5040476;28;19932;-63
2023/12/08 12:50:09;;;;;;;;;;;2.10;99.90;;;;;;5037895;28;19940;-62
2023/12/08 12:52:38;;;;;;;;;;;2.10;99.90;;;;;;5040714;28;19936;-62
2023/12/08 12:55:21;;;;;;;;;;;2.10;99.90;;;;;;5040639;28;19933;-60
2023/12/08 12:57:48;;;;;;;;;;;2.10;99.90;;;;;;5039613;28;19929;-65
2023/12/08 13:00:29;;;;;;;;;;;2.10;99.90;;;;;;5040461;28;19929;-65
2023/12/08 13:02:56;;;;;;;;;;;2.10;99.90;;;;;;5037921;28;19932;-63
2023/12/08 13:05:24;;;;;;;;;;;2.10;99.90;;;;;;5040604;28;19932;-65
2023/12/08 13:07:57;;;;;;;;;;;2.10;99.90;;;;;;5040314;28;19932;-63
2023/12/08 13:10:24;;;;;;;;;;;2.00;99.90;;;;;;5037180;28;19935;-63
2023/12/08 13:12:51;;;;;;;;;;;2.00;99.90;;;;;;5025482;28;19961;-66
2023/12/08 13:15:17;;;;;;;;;;;2.00;99.90;;;;;;5039515;28;19933;-59
2023/12/08 13:17:45;;;;;;;;;;;2.00;99.90;;;;;;5037708;28;19933;-64
2023/12/08 13:20:11;;;;;;;;;;;2.00;99.90;;;;;;5040670;28;19979;-61
2023/12/08 13:22:39;;;;;;;;;;;2.00;99.90;;;;;;5041001;28;19939;-64
2023/12/08 13:25:06;;;;;;;;;;;2.00;99.90;;;;;;5040390;28;19929;-66
2023/12/08 13:27:33;;;;;;;;;;;2.00;99.90;;;;;;5039869;28;19936;-62
2023/12/08 13:30:00;;;;;;;;;;;2.00;99.90;;;;;;5039054;28;19962;-63
2023/12/08 13:32:27;;;;;;;;;;;1.90;99.90;;;;;;5038416;28;19939;-60
2023/12/08 13:34:54;;;;;;;;;;;2.00;99.90;;;;;;5040589;28;20212;-62
2023/12/08 13:37:21;;;;;;;;;;;1.90;99.90;;;;;;5038874;28;20031;-60
2023/12/08 13:39:48;;;;;;;;;;;1.90;99.90;;;;;;5041584;28;20335;-63
2023/12/08 13:42:15;;;;;;;;;;;1.90;99.90;;;;;;5038225;28;19960;-64
2023/12/08 13:44:42;;;;;;;;;;;1.90;99.90;;;;;;5037626;28;19936;-62
2023/12/08 13:47:09;;;;;;;;;;;1.90;99.90;;;;;;5039154;28;19933;-63
2023/12/08 13:49:35;;;;;;;;;;;1.90;99.90;;;;;;5039021;28;20009;-60
2023/12/08 13:52:03;;;;;;;;;;;1.90;99.90;;;;;;5039838;28;19929;-62
2023/12/08 13:54:30;;;;;;;;;;;1.90;99.90;;;;;;5024569;28;20059;-63
2023/12/08 13:56:57;;;;;;;;;;;1.80;99.90;;;;;;5038215;28;19929;-62
2023/12/08 13:59:24;;;;;;;;;;;1.90;99.90;;;;;;5040203;28;20022;-65
2023/12/08 14:01:51;;;;;;;;;;;1.80;99.90;;;;;;5037491;28;19940;-64
2023/12/08 14:04:17;;;;;;;;;;;1.80;99.90;;;;;;5039203;28;20061;-61
2023/12/08 14:06:44;;;;;;;;;;;1.80;99.90;;;;;;5025626;28;19932;-64
2023/12/08 14:09:11;;;;;;;;;;;1.80;99.90;;;;;;5038476;28;19929;-66
2023/12/08 14:11:38;;;;;;;;;;;1.80;99.90;;;;;;5039120;28;19933;-60
2023/12/08 14:14:05;;;;;;;;;;;1.90;99.90;;;;;;5034387;28;19932;-63
2023/12/08 14:16:31;;;;;;;;;;;1.80;99.90;;;;;;5046940;28;20413;-63
2023/12/08 14:18:58;;;;;;;;;;;1.80;99.90;;;;;;5038257;28;19944;-62
2023/12/08 14:21:25;;;;;;;;;;;1.80;99.90;;;;;;5038989;28;19929;-61
2023/12/08 14:23:52;;;;;;;;;;;1.80;99.90;;;;;;5039799;28;19933;-63
2023/12/08 14:26:19;;;;;;;;;;;1.80;99.90;;;;;;5039967;28;19967;-65
2023/12/08 14:28:46;;;;;;;;;;;1.80;99.90;;;;;;5040788;28;20017;-63
2023/12/08 14:31:13;;;;;;;;;;;1.80;99.90;;;;;;5037357;28;19929;-64
2023/12/08 14:33:40;;;;;;;;;;;1.80;99.90;;;;;;5039075;28;19933;-65